createdAt,value
2019-03-23T00:00:57.867Z,4.50
2019-03-23T00:06:16.583Z,5.17
2019-03-23T00:11:35.265Z,5.70
2019-03-23T00:16:53.928Z,6.80
2019-03-23T00:22:12.578Z,6.97
2019-03-23T00:27:31.043Z,7.37
2019-03-23T00:32:49.596Z,11.37
2019-03-23T00:38:08.324Z,12.83
2019-03-23T00:43:26.925Z,13.03
2019-03-23T00:48:45.472Z,11.95
2019-03-23T00:54:04.088Z,15.33
2019-03-23T00:59:22.735Z,15.77
2019-03-23T01:04:41.348Z,18.13
2019-03-23T01:09:59.974Z,18.27
2019-03-23T01:15:18.691Z,16.75
2019-03-23T01:20:37.268Z,15.88
2019-03-23T01:25:56.003Z,15.20
2019-03-23T01:31:14.566Z,16.03
2019-03-23T01:36:33.265Z,16.13
2019-03-23T01:41:51.925Z,16.57
2019-03-23T01:47:10.549Z,18.60
2019-03-23T01:52:29.249Z,19.00
2019-03-23T01:57:47.990Z,21.50
2019-03-23T02:03:06.705Z,24.72
2019-03-23T02:08:25.336Z,23.87
2019-03-23T02:13:43.902Z,29.37
2019-03-23T02:19:02.521Z,32.63
2019-03-23T02:24:21.437Z,31.07
2019-03-23T02:29:40.066Z,31.77
2019-03-23T02:34:58.716Z,35.58
2019-03-23T02:40:17.369Z,33.02
2019-03-23T02:45:36.115Z,36.57
2019-03-23T02:50:54.744Z,35.60
2019-03-23T02:56:13.361Z,36.77
2019-03-23T03:01:32.025Z,40.87
2019-03-23T03:06:50.690Z,43.30
2019-03-23T03:12:09.275Z,45.57
2019-03-23T03:17:27.898Z,46.47
2019-03-23T03:22:46.548Z,43.37
2019-03-23T03:28:05.280Z,44.33
2019-03-23T03:33:23.931Z,43.73
2019-03-23T03:38:42.501Z,46.97
2019-03-23T03:44:01.256Z,47.77
2019-03-23T03:49:19.882Z,46.93
2019-03-23T03:54:38.555Z,46.53
2019-03-23T03:59:57.196Z,46.93
2019-03-23T04:05:16.039Z,47.67
2019-03-23T04:10:34.678Z,47.67
2019-03-23T04:15:53.306Z,49.20
2019-03-23T04:21:12.023Z,50.27
2019-03-23T04:26:30.676Z,48.17
2019-03-23T04:31:49.309Z,49.17
2019-03-23T04:37:11.837Z,50.87
2019-03-23T04:42:34.687Z,54.73
2019-03-23T04:47:53.270Z,54.67
2019-03-23T04:53:11.928Z,57.10
2019-03-23T04:58:30.650Z,55.70
2019-03-23T05:03:49.530Z,58.97
2019-03-23T05:09:09.292Z,59.13
2019-03-23T05:14:28.248Z,64.17
2019-03-23T05:19:46.705Z,62.40
2019-03-23T05:25:06.389Z,62.23
2019-03-23T05:30:25.123Z,58.57
2019-03-23T05:35:43.786Z,63.10
2019-03-23T05:41:02.514Z,56.60
2019-03-23T05:46:40.735Z,59.40
2019-03-23T05:52:05.836Z,63.67
2019-03-23T05:57:29.266Z,58.07
2019-03-23T06:02:47.958Z,53.57
2019-03-23T06:08:06.850Z,51.35
2019-03-23T06:13:25.501Z,47.55
2019-03-23T06:18:44.572Z,42.30
2019-03-23T06:24:08.705Z,46.03
2019-03-23T06:29:31.454Z,47.33
2019-03-23T06:34:50.083Z,48.87
2019-03-23T06:40:10.249Z,46.47
2019-03-23T06:45:28.737Z,48.17
2019-03-23T06:50:47.433Z,46.70
2019-03-23T06:56:06.030Z,43.03
2019-03-23T07:01:24.724Z,43.57
2019-03-23T07:06:43.287Z,42.73
2019-03-23T07:12:01.936Z,44.37
2019-03-23T07:17:20.565Z,40.77
2019-03-23T07:22:39.320Z,43.67
2019-03-23T07:27:58.016Z,42.60
2019-03-23T07:33:16.683Z,47.20
2019-03-23T07:38:35.523Z,39.97
2019-03-23T07:43:54.296Z,45.80
2019-03-23T07:49:13.025Z,46.77
2019-03-23T07:54:31.617Z,45.70
2019-03-23T07:59:50.265Z,48.33
2019-03-23T08:05:09.888Z,47.07
2019-03-23T08:10:32.777Z,44.23
2019-03-23T08:15:51.444Z,46.50
2019-03-23T08:21:10.096Z,46.87
2019-03-23T08:26:28.816Z,45.83
2019-03-23T08:31:47.456Z,46.13
2019-03-23T08:37:06.153Z,44.30
2019-03-23T08:42:24.914Z,44.13
2019-03-23T08:47:43.559Z,43.42
2019-03-23T08:53:02.273Z,44.70
2019-03-23T08:58:30.562Z,42.43
2019-03-23T09:03:52.762Z,41.37
2019-03-23T09:09:09.728Z,39.90
2019-03-23T09:14:28.358Z,41.47
2019-03-23T09:19:46.936Z,41.07
2019-03-23T09:25:06.943Z,41.02
2019-03-23T09:30:25.600Z,43.23
2019-03-23T09:35:44.258Z,39.23
2019-03-23T09:41:03.050Z,44.43
2019-03-23T09:46:21.693Z,46.03
2019-03-23T09:51:40.315Z,40.63
2019-03-23T09:56:59.672Z,42.43
2019-03-23T10:02:18.458Z,43.87
2019-03-23T10:07:37.113Z,41.50
2019-03-23T10:12:55.692Z,43.15
2019-03-23T10:18:14.233Z,45.60
2019-03-23T10:23:32.870Z,44.07
2019-03-23T10:28:51.519Z,42.83
2019-03-23T10:34:10.420Z,43.30
2019-03-23T10:39:29.252Z,43.83
2019-03-23T10:44:47.966Z,44.40
2019-03-23T10:50:07.106Z,45.33
2019-03-23T10:55:25.982Z,42.70
2019-03-23T11:00:44.614Z,45.08
2019-03-23T11:06:03.496Z,45.40
2019-03-23T11:11:22.148Z,42.90
2019-03-23T11:16:40.724Z,43.53
2019-03-23T11:21:59.462Z,44.13
2019-03-23T11:27:19.256Z,38.67
2019-03-23T11:32:43.028Z,40.43
2019-03-23T11:38:06.187Z,37.60
2019-03-23T11:43:32.651Z,36.13
2019-03-23T11:48:51.424Z,36.33
2019-03-23T11:54:10.443Z,36.47
2019-03-23T11:59:29.687Z,36.70
2019-03-23T12:04:58.363Z,35.47
2019-03-23T12:10:22.242Z,38.90
2019-03-23T12:15:40.920Z,37.67
2019-03-23T12:20:59.585Z,35.10
2019-03-23T12:26:18.329Z,36.03
2019-03-23T12:31:37.005Z,36.70
2019-03-23T12:36:55.585Z,34.23
2019-03-23T12:42:14.274Z,34.57
2019-03-23T12:47:33.005Z,33.53
2019-03-23T12:52:51.668Z,35.08
2019-03-23T12:58:10.339Z,32.07
2019-03-23T13:03:28.913Z,31.30
2019-03-23T13:08:47.603Z,32.53
2019-03-23T13:14:06.328Z,30.77
2019-03-23T13:19:25.072Z,30.50
2019-03-23T13:24:43.896Z,30.50
2019-03-23T13:30:02.798Z,28.67
2019-03-23T13:35:21.562Z,30.17
2019-03-23T13:40:40.179Z,30.33
2019-03-23T13:45:58.945Z,29.90
2019-03-23T13:51:17.712Z,27.37
2019-03-23T13:56:36.302Z,29.20
2019-03-23T14:01:54.953Z,29.30
2019-03-23T14:07:13.704Z,28.25
2019-03-23T14:12:32.374Z,27.40
2019-03-23T14:17:51.139Z,28.13
2019-03-23T14:23:09.720Z,26.47
2019-03-23T14:28:28.471Z,26.03
2019-03-23T14:33:47.118Z,28.20
2019-03-23T14:39:07.077Z,26.15
2019-03-23T14:44:25.675Z,26.62
2019-03-23T14:49:44.498Z,28.77
2019-03-23T14:55:03.315Z,27.73
2019-03-23T15:00:32.275Z,28.67
2019-03-23T15:05:52.107Z,30.57
2019-03-23T15:11:10.847Z,28.43
2019-03-23T15:16:29.481Z,30.05
2019-03-23T15:21:48.112Z,34.50
2019-03-23T15:27:06.847Z,30.97
2019-03-23T15:32:25.547Z,28.80
2019-03-23T15:37:44.410Z,29.90
2019-03-23T15:43:03.145Z,29.33
2019-03-23T15:48:21.789Z,32.37
2019-03-23T15:53:40.407Z,30.13
2019-03-23T15:58:59.132Z,30.47
2019-03-23T16:04:18.115Z,32.60
2019-03-23T16:09:36.780Z,31.67
2019-03-23T16:14:55.599Z,31.30
2019-03-23T16:20:14.830Z,33.33
2019-03-23T16:25:33.405Z,31.00
2019-03-23T16:30:52.125Z,31.27
2019-03-23T16:36:10.770Z,28.30
2019-03-23T16:41:29.417Z,31.20
2019-03-23T16:46:48.000Z,31.10
2019-03-23T16:52:06.745Z,32.13
2019-03-23T16:57:25.303Z,28.53
2019-03-23T17:02:44.060Z,30.93
2019-03-23T17:08:02.738Z,32.13
2019-03-23T17:13:21.367Z,31.73
2019-03-23T17:18:40.169Z,33.27
2019-03-23T17:23:58.750Z,34.20
2019-03-23T17:29:17.425Z,32.23
2019-03-23T17:34:36.011Z,32.70
2019-03-23T17:39:56.328Z,33.23
2019-03-23T17:45:15.019Z,31.02
2019-03-23T17:50:33.692Z,33.03
2019-03-23T17:55:52.324Z,34.10
2019-03-23T18:01:19.391Z,32.00
2019-03-23T18:06:34.517Z,31.00
2019-03-23T18:11:53.222Z,32.23
2019-03-23T18:17:11.863Z,35.23
2019-03-23T18:22:30.566Z,34.20
2019-03-23T18:27:49.234Z,33.87
2019-03-23T18:33:08.402Z,32.63
2019-03-23T18:38:27.033Z,35.07
2019-03-23T18:43:50.065Z,34.33
2019-03-23T18:49:10.973Z,36.60
2019-03-23T18:54:29.781Z,38.23
2019-03-23T18:59:55.941Z,39.40
2019-03-23T19:05:14.738Z,39.73
2019-03-23T19:10:36.078Z,37.30
2019-03-23T19:15:54.847Z,33.30
2019-03-23T19:21:15.172Z,34.97
2019-03-23T19:26:39.448Z,32.67
2019-03-23T19:32:06.665Z,33.93
2019-03-23T19:37:26.895Z,32.63
2019-03-23T19:42:47.858Z,26.50
2019-03-23T19:48:06.700Z,18.93
2019-03-23T19:53:27.510Z,18.80
2019-03-23T19:58:46.964Z,16.60
2019-03-23T20:04:07.020Z,17.87
2019-03-23T20:09:28.081Z,17.50
2019-03-23T20:14:48.407Z,16.83
2019-03-23T20:20:12.319Z,17.73
2019-03-23T20:25:33.785Z,16.47
2019-03-23T20:30:55.640Z,16.63
2019-03-23T20:36:15.318Z,15.70
2019-03-23T20:41:34.134Z,17.80
2019-03-23T20:46:53.214Z,16.80
2019-03-23T20:52:11.928Z,18.20
2019-03-23T20:57:37.411Z,17.97
2019-03-23T21:02:52.298Z,17.63
2019-03-23T21:08:11.526Z,17.27
2019-03-23T21:13:31.039Z,17.43
2019-03-23T21:18:49.605Z,16.70
2019-03-23T21:24:08.260Z,17.47
2019-03-23T21:29:26.860Z,16.27
2019-03-23T21:34:45.430Z,15.70
2019-03-23T21:45:39.533Z,14.57
2019-03-23T21:50:58.096Z,13.40
2019-03-23T21:56:16.717Z,12.00
2019-03-23T22:01:35.194Z,11.33
2019-03-23T22:06:53.761Z,10.47
2019-03-23T22:12:12.362Z,10.73
2019-03-23T22:17:30.938Z,10.07
2019-03-23T22:22:49.548Z,10.47
2019-03-23T22:28:08.187Z,9.77
2019-03-23T22:33:26.894Z,9.97
2019-03-23T22:38:45.505Z,9.53
2019-03-23T22:44:04.264Z,8.90
2019-03-23T22:49:22.808Z,8.50
2019-03-23T22:54:41.439Z,8.17
2019-03-23T22:59:59.994Z,7.80
2019-03-23T23:05:18.689Z,7.60
2019-03-23T23:10:37.339Z,7.00
2019-03-23T23:15:55.979Z,5.80
2019-03-23T23:21:14.631Z,5.43
2019-03-23T23:26:33.186Z,5.00
2019-03-23T23:31:52.014Z,6.27
2019-03-23T23:37:10.652Z,5.50
2019-03-23T23:42:29.144Z,5.70
2019-03-23T23:47:47.796Z,5.90
2019-03-23T23:53:06.413Z,6.20
2019-03-23T23:58:25.023Z,5.93
